• Join FlightAware (Why Join?)
  • Login
  • US Flag 
04:56AM EDT


 

Airport Tracker/Info


-or-


 

Live Flight TrackerFlight Track Log ✈ N31DL ✈ 09-Nov-2013 ✈ KJAN - KFYE

Flight Track Log - Related Links

Times and Time Zones

All times are in EST time to prevent confusion due to time zone crossing. See the N31DL flight status page for this flight to view local times or setup timezone preferences in your user account.

Time Position Orientation Groundspeed Altitude Reporting Facility
EST Latitude Longitude Course Direction KTS MPH feet Rate Location/Type
07:26PM 32.3808 -90.0764 12° North 96 110 2,000  Level Memphis Center
07:27PM 32.4092 -90.0703 10° North 100 115 2,700 720 Climbing Memphis Center
07:28PM 32.4428 -90.0622 11° North 102 117 3,500 660 Climbing Memphis Center
07:29PM 32.4692 -90.0547 13° North 101 116 4,100 540 Climbing Memphis Center
07:30PM 32.5648 -90.0180 12° North  Level Estimated
07:30PM 32.4981 -90.0464 14° North 103 119 4,700  Level Memphis Center
07:31PM 32.6070 -90.0078 12° North  Level FlightAware Approximate
07:31PM 32.5300 -90.0425 North 108 124 4,900  Level Memphis Center
07:32PM 32.5681 -90.0392 North 122 140 4,900  Level Memphis Center
07:33PM 32.6083 -90.0278 13° North 138 159 4,900  Level Memphis Center
07:34PM 32.6489 -90.0125 18° North 147 169 4,900  Level Memphis Center
07:35PM 32.6894 -90.0039 10° North 149 171 5,000  Climbing Memphis Center
07:36PM 32.7317 -89.9983 North 151 174 4,900 -60 Descending Memphis Center
07:37PM 32.7803 -89.9864 12° North 150 173 4,900  Level Memphis Center
07:38PM 32.8206 -89.9769 11° North 149 171 4,900  Level Memphis Center
07:39PM 32.8622 -89.9683 10° North 150 173 4,900  Level Memphis Center
07:40PM 32.9031 -89.9594 10° North 150 173 4,900  Level Memphis Center
07:41PM 32.9439 -89.9481 13° North 149 171 4,900  Level Memphis Center
07:42PM 32.9853 -89.9383 11° North 149 171 4,900  Level Memphis Center
07:43PM 33.0256 -89.9267 14° North 149 171 4,900  Level Memphis Center
07:44PM 33.0650 -89.9153 14° North 147 169 4,900  Level Memphis Center
07:45PM 33.1047 -89.9042 13° North 146 168 4,900  Level Memphis Center
07:46PM 33.1447 -89.8919 14° North 148 170 4,900  Level Memphis Center
07:47PM 33.1856 -89.8803 13° North 149 171 4,900  Level Memphis Center
07:48PM 33.2264 -89.8683 14° North 150 173 4,900  Level Memphis Center
07:49PM 33.2669 -89.8550 15° North 151 174 4,900  Level Memphis Center
07:50PM 33.3175 -89.8403 14° North 154 177 4,900  Level Memphis Center
07:51PM 33.3592 -89.8311 10° North 154 177 5,000  Climbing Memphis Center
07:52PM 33.4006 -89.8231 North 153 176 4,900  Descending Memphis Center
07:53PM 33.4444 -89.8150 North 156 180 5,000  Climbing Memphis Center
07:54PM 33.4856 -89.8061 10° North 153 176 5,000 -60 Level Memphis Center
07:55PM 33.5286 -89.7975 North 155 178 4,900  Descending Memphis Center
07:56PM 33.5706 -89.7928 North 154 177 5,000  Climbing Memphis Center
07:57PM 33.6122 -89.7872 North 152 175 4,900  Descending Memphis Center
07:58PM 33.6619 -89.7803 North 151 174 5,000  Climbing Memphis Center
07:59PM 33.7031 -89.7739 North 150 173 5,000 -60 Level Memphis Center
08:00PM 33.7444 -89.7664 North 150 173 4,900  Descending Memphis Center
08:01PM 33.7856 -89.7564 11° North 151 174 5,000  Climbing Memphis Center
08:02PM 33.8297 -89.7428 14° North 154 177 5,000  Level Memphis Center
08:03PM 33.8736 -89.7308 13° North 157 181 5,000  Level Memphis Center
08:04PM 33.9169 -89.7167 15° North 159 183 5,000 -60 Level Memphis Center
08:05PM 33.9608 -89.7019 16° North 161 185 4,900  Descending Memphis Center
08:06PM 34.0050 -89.6897 13° North 161 185 5,000  Climbing Memphis Center
08:07PM 34.0503 -89.6792 11° North 163 188 5,000  Level Memphis Center
08:08PM 34.0950 -89.6722 North 161 185 5,000  Level Memphis Center
08:09PM 34.1400 -89.6633 North 162 186 5,000  Level Memphis Center
08:10PM 34.1842 -89.6547 North 159 183 5,000  Level Memphis Center
08:11PM 34.2281 -89.6444 11° North 159 183 5,000  Level Memphis Center
08:13PM 34.2722 -89.6339 11° North 160 184 5,000 -60 Level Memphis Center
08:14PM 34.3164 -89.6231 11° North 161 185 4,900 -60 Descending Memphis Center
08:15PM 34.3600 -89.6114 12° North 160 184 4,900 -300 Level Memphis Center
08:16PM 34.4042 -89.5981 14° North 160 184 4,400 -540 Descending Memphis Center
08:17PM 34.4469 -89.5850 14° North 158 182 3,900 -300 Descending Memphis Center
08:18PM 34.4908 -89.5739 12° North 159 183 3,900  Level Memphis Center
08:19PM 34.5325 -89.5639 11° North 154 177 3,900  Level Memphis Center
08:20PM 34.5744 -89.5564 North 152 175 3,900  Level Memphis Center
08:21PM 34.6236 -89.5469 North 152 175 3,900  Level Memphis Center
08:22PM 34.6644 -89.5358 13° North 150 173 3,900  Level Memphis Center
08:23PM 34.7064 -89.5247 12° North 151 174 3,900  Level Memphis Center
08:24PM 34.7478 -89.5131 13° North 152 175 3,900  Level Memphis Center
08:25PM 34.7869 -89.4908 25° Northeast 153 176 3,900  Level Memphis Center
08:26PM 34.8283 -89.4797 12° North 152 175 3,900 -240 Level Memphis Center
08:27PM 34.8703 -89.4681 13° North 153 176 3,500 -360 Descending Memphis Center
08:28PM 34.9069 -89.4578 13° North 154 177 3,200 -300 Descending Memphis Center